sensor_id;sensor_type;location;lat;lon;timestamp;P1;durP1;ratioP1;P2;durP2;ratioP2
55224;SDS011;41091;49.400;8.684;2023-03-01T00:00:39;15.02;;;6.90;;
55224;SDS011;41091;49.400;8.684;2023-03-01T00:03:11;9.85;;;6.57;;
55224;SDS011;41091;49.400;8.684;2023-03-01T00:05:36;8.20;;;6.40;;
55224;SDS011;41091;49.400;8.684;2023-03-01T00:08:11;11.77;;;6.88;;
55224;SDS011;41091;49.400;8.684;2023-03-01T00:10:36;10.18;;;6.07;;
55224;SDS011;41091;49.400;8.684;2023-03-01T00:13:04;7.70;;;6.90;;
55224;SDS011;41091;49.400;8.684;2023-03-01T00:15:30;8.48;;;6.70;;
55224;SDS011;41091;49.400;8.684;2023-03-01T00:17:56;9.27;;;6.85;;
55224;SDS011;41091;49.400;8.684;2023-03-01T00:20:27;12.73;;;7.28;;
55224;SDS011;41091;49.400;8.684;2023-03-01T00:22:55;14.80;;;7.13;;
55224;SDS011;41091;49.400;8.684;2023-03-01T00:25:20;8.52;;;6.60;;
55224;SDS011;41091;49.400;8.684;2023-03-01T00:27:46;9.23;;;6.85;;
55224;SDS011;41091;49.400;8.684;2023-03-01T00:30:14;12.57;;;7.50;;
55224;SDS011;41091;49.400;8.684;2023-03-01T00:32:39;10.15;;;6.85;;
55224;SDS011;41091;49.400;8.684;2023-03-01T00:35:04;13.00;;;6.93;;
55224;SDS011;41091;49.400;8.684;2023-03-01T00:37:30;10.23;;;7.40;;
55224;SDS011;41091;49.400;8.684;2023-03-01T00:39:58;7.22;;;6.50;;
55224;SDS011;41091;49.400;8.684;2023-03-01T00:42:23;10.50;;;6.93;;
55224;SDS011;41091;49.400;8.684;2023-03-01T00:44:52;10.82;;;7.35;;
55224;SDS011;41091;49.400;8.684;2023-03-01T00:47:17;10.80;;;6.72;;
55224;SDS011;41091;49.400;8.684;2023-03-01T00:49:42;10.55;;;7.30;;
55224;SDS011;41091;49.400;8.684;2023-03-01T00:52:08;8.50;;;6.63;;
55224;SDS011;41091;49.400;8.684;2023-03-01T00:54:37;9.75;;;7.00;;
55224;SDS011;41091;49.400;8.684;2023-03-01T00:57:03;8.52;;;7.07;;
55224;SDS011;41091;49.400;8.684;2023-03-01T00:59:30;9.07;;;7.45;;
55224;SDS011;41091;49.400;8.684;2023-03-01T01:01:55;11.80;;;8.48;;
55224;SDS011;41091;49.400;8.684;2023-03-01T01:04:21;11.90;;;7.63;;
55224;SDS011;41091;49.400;8.684;2023-03-01T01:06:47;15.43;;;8.80;;
55224;SDS011;41091;49.400;8.684;2023-03-01T01:09:14;12.52;;;8.25;;
55224;SDS011;41091;49.400;8.684;2023-03-01T01:11:44;14.50;;;8.68;;
55224;SDS011;41091;49.400;8.684;2023-03-01T01:14:13;9.93;;;7.83;;
55224;SDS011;41091;49.400;8.684;2023-03-01T01:16:44;11.18;;;7.53;;
55224;SDS011;41091;49.400;8.684;2023-03-01T01:19:13;20.60;;;8.73;;
55224;SDS011;41091;49.400;8.684;2023-03-01T01:21:38;14.07;;;8.30;;
55224;SDS011;41091;49.400;8.684;2023-03-01T01:24:04;14.93;;;8.65;;
55224;SDS011;41091;49.400;8.684;2023-03-01T01:26:31;15.77;;;9.63;;
55224;SDS011;41091;49.400;8.684;2023-03-01T01:28:58;16.85;;;9.00;;
55224;SDS011;41091;49.400;8.684;2023-03-01T01:31:25;9.52;;;7.47;;
55224;SDS011;41091;49.400;8.684;2023-03-01T01:33:51;16.75;;;8.77;;
55224;SDS011;41091;49.400;8.684;2023-03-01T01:36:17;27.10;;;10.50;;
55224;SDS011;41091;49.400;8.684;2023-03-01T01:38:43;14.10;;;9.45;;
55224;SDS011;41091;49.400;8.684;2023-03-01T01:41:09;16.15;;;8.65;;
55224;SDS011;41091;49.400;8.684;2023-03-01T01:43:38;14.52;;;8.32;;
55224;SDS011;41091;49.400;8.684;2023-03-01T01:48:40;15.80;;;9.02;;
55224;SDS011;41091;49.400;8.684;2023-03-01T01:51:10;19.42;;;9.35;;
55224;SDS011;41091;49.400;8.684;2023-03-01T01:53:40;14.43;;;9.00;;
55224;SDS011;41091;49.400;8.684;2023-03-01T01:56:07;17.30;;;9.45;;
55224;SDS011;41091;49.400;8.684;2023-03-01T01:58:34;18.17;;;9.63;;
55224;SDS011;41091;49.400;8.684;2023-03-01T02:00:59;12.38;;;8.52;;
55224;SDS011;41091;49.400;8.684;2023-03-01T02:03:27;14.38;;;8.32;;
55224;SDS011;41091;49.400;8.684;2023-03-01T02:08:31;12.73;;;8.48;;
55224;SDS011;41091;49.400;8.684;2023-03-01T02:10:59;11.85;;;9.13;;
55224;SDS011;41091;49.400;8.684;2023-03-01T02:13:25;15.55;;;8.70;;
55224;SDS011;41091;49.400;8.684;2023-03-01T02:15:54;14.00;;;8.88;;
55224;SDS011;41091;49.400;8.684;2023-03-01T02:18:20;13.25;;;8.52;;
55224;SDS011;41091;49.400;8.684;2023-03-01T02:23:32;14.40;;;8.80;;
55224;SDS011;41091;49.400;8.684;2023-03-01T02:26:08;12.93;;;9.00;;
55224;SDS011;41091;49.400;8.684;2023-03-01T02:28:44;14.48;;;9.35;;
55224;SDS011;41091;49.400;8.684;2023-03-01T02:31:10;15.90;;;8.40;;
55224;SDS011;41091;49.400;8.684;2023-03-01T02:33:55;16.48;;;8.73;;
55224;SDS011;41091;49.400;8.684;2023-03-01T02:36:26;15.32;;;8.52;;
55224;SDS011;41091;49.400;8.684;2023-03-01T02:38:56;15.15;;;8.40;;
55224;SDS011;41091;49.400;8.684;2023-03-01T02:41:22;14.18;;;9.13;;
55224;SDS011;41091;49.400;8.684;2023-03-01T02:43:48;16.08;;;9.63;;
55224;SDS011;41091;49.400;8.684;2023-03-01T02:46:25;10.95;;;7.90;;
55224;SDS011;41091;49.400;8.684;2023-03-01T02:48:52;12.80;;;8.30;;
55224;SDS011;41091;49.400;8.684;2023-03-01T02:56:40;12.43;;;8.48;;
55224;SDS011;41091;49.400;8.684;2023-03-01T02:59:06;17.55;;;8.65;;
55224;SDS011;41091;49.400;8.684;2023-03-01T03:01:31;16.33;;;9.77;;
55224;SDS011;41091;49.400;8.684;2023-03-01T03:04:05;13.45;;;8.70;;
55224;SDS011;41091;49.400;8.684;2023-03-01T03:06:32;14.05;;;9.38;;
55224;SDS011;41091;49.400;8.684;2023-03-01T03:08:57;14.98;;;8.85;;
55224;SDS011;41091;49.400;8.684;2023-03-01T03:11:25;14.45;;;9.88;;
55224;SDS011;41091;49.400;8.684;2023-03-01T03:13:53;22.45;;;9.20;;
55224;SDS011;41091;49.400;8.684;2023-03-01T03:16:22;16.05;;;9.35;;
55224;SDS011;41091;49.400;8.684;2023-03-01T03:18:53;15.20;;;8.55;;
55224;SDS011;41091;49.400;8.684;2023-03-01T03:21:18;16.58;;;10.55;;
55224;SDS011;41091;49.400;8.684;2023-03-01T03:23:45;17.60;;;9.13;;
55224;SDS011;41091;49.400;8.684;2023-03-01T03:26:11;14.48;;;9.30;;
55224;SDS011;41091;49.400;8.684;2023-03-01T03:28:38;15.52;;;9.85;;
55224;SDS011;41091;49.400;8.684;2023-03-01T03:31:06;13.63;;;8.77;;
55224;SDS011;41091;49.400;8.684;2023-03-01T03:33:32;22.05;;;10.63;;
55224;SDS011;41091;49.400;8.684;2023-03-01T03:36:00;15.38;;;10.07;;
55224;SDS011;41091;49.400;8.684;2023-03-01T03:38:25;18.70;;;10.48;;
55224;SDS011;41091;49.400;8.684;2023-03-01T03:41:03;20.83;;;10.27;;
55224;SDS011;41091;49.400;8.684;2023-03-01T03:43:32;15.52;;;9.48;;
55224;SDS011;41091;49.400;8.684;2023-03-01T03:46:00;17.35;;;9.88;;
55224;SDS011;41091;49.400;8.684;2023-03-01T03:48:30;20.50;;;10.07;;
55224;SDS011;41091;49.400;8.684;2023-03-01T03:50:56;19.88;;;9.80;;
55224;SDS011;41091;49.400;8.684;2023-03-01T03:53:28;17.02;;;10.07;;
55224;SDS011;41091;49.400;8.684;2023-03-01T03:55:54;22.05;;;11.32;;
55224;SDS011;41091;49.400;8.684;2023-03-01T03:58:21;25.17;;;11.10;;
55224;SDS011;41091;49.400;8.684;2023-03-01T04:00:49;20.58;;;10.38;;
55224;SDS011;41091;49.400;8.684;2023-03-01T04:03:19;18.73;;;10.15;;
55224;SDS011;41091;49.400;8.684;2023-03-01T04:05:45;20.27;;;10.65;;
55224;SDS011;41091;49.400;8.684;2023-03-01T04:08:11;20.92;;;10.45;;
55224;SDS011;41091;49.400;8.684;2023-03-01T04:10:40;23.50;;;11.25;;
55224;SDS011;41091;49.400;8.684;2023-03-01T04:13:11;17.65;;;10.30;;
55224;SDS011;41091;49.400;8.684;2023-03-01T04:15:37;15.02;;;9.57;;
55224;SDS011;41091;49.400;8.684;2023-03-01T04:18:06;16.45;;;9.40;;
55224;SDS011;41091;49.400;8.684;2023-03-01T04:20:32;19.45;;;11.73;;
55224;SDS011;41091;49.400;8.684;2023-03-01T04:25:47;19.80;;;10.45;;
55224;SDS011;41091;49.400;8.684;2023-03-01T04:28:20;17.48;;;10.23;;
55224;SDS011;41091;49.400;8.684;2023-03-01T04:30:52;18.00;;;11.07;;
55224;SDS011;41091;49.400;8.684;2023-03-01T04:33:18;19.35;;;10.18;;
55224;SDS011;41091;49.400;8.684;2023-03-01T04:35:44;17.23;;;10.75;;
55224;SDS011;41091;49.400;8.684;2023-03-01T04:38:14;21.43;;;10.40;;
55224;SDS011;41091;49.400;8.684;2023-03-01T04:40:44;22.63;;;10.65;;
55224;SDS011;41091;49.400;8.684;2023-03-01T04:43:12;18.10;;;10.45;;
55224;SDS011;41091;49.400;8.684;2023-03-01T04:45:40;15.02;;;9.48;;
55224;SDS011;41091;49.400;8.684;2023-03-01T04:48:08;15.73;;;9.77;;
55224;SDS011;41091;49.400;8.684;2023-03-01T04:50:36;16.27;;;9.98;;
55224;SDS011;41091;49.400;8.684;2023-03-01T04:53:01;13.50;;;9.70;;
55224;SDS011;41091;49.400;8.684;2023-03-01T04:55:27;19.77;;;11.98;;
55224;SDS011;41091;49.400;8.684;2023-03-01T04:57:52;14.75;;;9.95;;
55224;SDS011;41091;49.400;8.684;2023-03-01T05:00:18;19.73;;;11.32;;
55224;SDS011;41091;49.400;8.684;2023-03-01T05:02:47;19.17;;;10.77;;
55224;SDS011;41091;49.400;8.684;2023-03-01T05:05:19;16.38;;;8.80;;
55224;SDS011;41091;49.400;8.684;2023-03-01T05:07:48;15.70;;;10.18;;
55224;SDS011;41091;49.400;8.684;2023-03-01T05:10:13;15.65;;;10.50;;
55224;SDS011;41091;49.400;8.684;2023-03-01T05:12:39;14.77;;;10.02;;
55224;SDS011;41091;49.400;8.684;2023-03-01T05:15:04;15.68;;;9.80;;
55224;SDS011;41091;49.400;8.684;2023-03-01T05:17:32;25.27;;;10.80;;
55224;SDS011;41091;49.400;8.684;2023-03-01T05:19:59;17.65;;;10.70;;
55224;SDS011;41091;49.400;8.684;2023-03-01T05:22:28;18.95;;;11.43;;
55224;SDS011;41091;49.400;8.684;2023-03-01T05:24:54;22.77;;;11.10;;
55224;SDS011;41091;49.400;8.684;2023-03-01T05:27:20;19.15;;;10.75;;
55224;SDS011;41091;49.400;8.684;2023-03-01T05:29:47;17.50;;;9.93;;
55224;SDS011;41091;49.400;8.684;2023-03-01T05:32:12;21.73;;;10.90;;
55224;SDS011;41091;49.400;8.684;2023-03-01T05:34:40;18.60;;;10.73;;
55224;SDS011;41091;49.400;8.684;2023-03-01T05:37:09;17.83;;;11.10;;
55224;SDS011;41091;49.400;8.684;2023-03-01T05:39:34;24.30;;;11.65;;
55224;SDS011;41091;49.400;8.684;2023-03-01T05:42:02;16.95;;;10.85;;
55224;SDS011;41091;49.400;8.684;2023-03-01T05:44:28;24.08;;;10.82;;
55224;SDS011;41091;49.400;8.684;2023-03-01T05:46:56;14.52;;;10.75;;
55224;SDS011;41091;49.400;8.684;2023-03-01T05:49:22;19.92;;;11.73;;
55224;SDS011;41091;49.400;8.684;2023-03-01T05:51:52;17.58;;;11.30;;
55224;SDS011;41091;49.400;8.684;2023-03-01T05:54:18;18.00;;;10.88;;
55224;SDS011;41091;49.400;8.684;2023-03-01T05:56:46;20.30;;;11.52;;
55224;SDS011;41091;49.400;8.684;2023-03-01T05:59:14;15.52;;;10.27;;
55224;SDS011;41091;49.400;8.684;2023-03-01T06:01:41;16.42;;;10.35;;
55224;SDS011;41091;49.400;8.684;2023-03-01T06:04:06;16.60;;;10.13;;
55224;SDS011;41091;49.400;8.684;2023-03-01T06:06:36;21.33;;;10.73;;
55224;SDS011;41091;49.400;8.684;2023-03-01T06:09:02;19.65;;;11.52;;
55224;SDS011;41091;49.400;8.684;2023-03-01T06:11:28;16.67;;;10.90;;
55224;SDS011;41091;49.400;8.684;2023-03-01T06:13:53;16.45;;;11.52;;
55224;SDS011;41091;49.400;8.684;2023-03-01T06:16:19;17.40;;;10.82;;
55224;SDS011;41091;49.400;8.684;2023-03-01T06:18:44;20.10;;;10.85;;
55224;SDS011;41091;49.400;8.684;2023-03-01T06:21:09;19.35;;;11.27;;
55224;SDS011;41091;49.400;8.684;2023-03-01T06:23:35;21.92;;;12.10;;
55224;SDS011;41091;49.400;8.684;2023-03-01T06:26:06;23.10;;;11.88;;
55224;SDS011;41091;49.400;8.684;2023-03-01T06:28:32;16.83;;;11.23;;
55224;SDS011;41091;49.400;8.684;2023-03-01T06:30:58;19.95;;;11.95;;
55224;SDS011;41091;49.400;8.684;2023-03-01T06:33:23;19.40;;;10.80;;
55224;SDS011;41091;49.400;8.684;2023-03-01T06:35:49;20.05;;;10.32;;
55224;SDS011;41091;49.400;8.684;2023-03-01T06:38:17;17.42;;;10.85;;
55224;SDS011;41091;49.400;8.684;2023-03-01T06:40:47;16.25;;;9.88;;
55224;SDS011;41091;49.400;8.684;2023-03-01T06:43:16;22.05;;;11.23;;
55224;SDS011;41091;49.400;8.684;2023-03-01T06:45:44;19.05;;;11.85;;
55224;SDS011;41091;49.400;8.684;2023-03-01T06:48:12;24.20;;;11.20;;
55224;SDS011;41091;49.400;8.684;2023-03-01T06:50:38;21.25;;;11.75;;
55224;SDS011;41091;49.400;8.684;2023-03-01T06:53:03;21.15;;;11.57;;
55224;SDS011;41091;49.400;8.684;2023-03-01T06:55:31;16.02;;;10.88;;
55224;SDS011;41091;49.400;8.684;2023-03-01T06:58:00;20.67;;;10.68;;
55224;SDS011;41091;49.400;8.684;2023-03-01T07:00:28;19.27;;;10.63;;
55224;SDS011;41091;49.400;8.684;2023-03-01T07:02:54;22.58;;;10.98;;
55224;SDS011;41091;49.400;8.684;2023-03-01T07:05:22;18.38;;;11.15;;
55224;SDS011;41091;49.400;8.684;2023-03-01T07:07:49;15.82;;;10.95;;
55224;SDS011;41091;49.400;8.684;2023-03-01T07:10:15;18.40;;;10.55;;
55224;SDS011;41091;49.400;8.684;2023-03-01T07:12:40;15.85;;;10.38;;
55224;SDS011;41091;49.400;8.684;2023-03-01T07:15:08;19.60;;;11.10;;
55224;SDS011;41091;49.400;8.684;2023-03-01T07:17:34;22.38;;;10.68;;
55224;SDS011;41091;49.400;8.684;2023-03-01T07:20:02;22.17;;;10.05;;
55224;SDS011;41091;49.400;8.684;2023-03-01T07:22:30;20.23;;;10.18;;
55224;SDS011;41091;49.400;8.684;2023-03-01T07:24:58;14.63;;;9.80;;
55224;SDS011;41091;49.400;8.684;2023-03-01T07:27:23;18.95;;;10.85;;
55224;SDS011;41091;49.400;8.684;2023-03-01T07:29:49;19.55;;;10.23;;
55224;SDS011;41091;49.400;8.684;2023-03-01T07:32:14;17.92;;;10.88;;
55224;SDS011;41091;49.400;8.684;2023-03-01T07:34:39;18.65;;;11.10;;
55224;SDS011;41091;49.400;8.684;2023-03-01T07:37:07;22.65;;;10.85;;
55224;SDS011;41091;49.400;8.684;2023-03-01T07:39:32;17.65;;;11.15;;
55224;SDS011;41091;49.400;8.684;2023-03-01T07:41:58;21.17;;;10.85;;
55224;SDS011;41091;49.400;8.684;2023-03-01T07:44:24;22.55;;;12.27;;
55224;SDS011;41091;49.400;8.684;2023-03-01T07:46:49;19.45;;;11.05;;
55224;SDS011;41091;49.400;8.684;2023-03-01T07:49:17;34.25;;;14.68;;
55224;SDS011;41091;49.400;8.684;2023-03-01T07:51:42;21.10;;;11.20;;
55224;SDS011;41091;49.400;8.684;2023-03-01T07:54:08;17.20;;;9.80;;
55224;SDS011;41091;49.400;8.684;2023-03-01T07:56:33;19.50;;;11.02;;
55224;SDS011;41091;49.400;8.684;2023-03-01T07:58:59;16.00;;;10.07;;
55224;SDS011;41091;49.400;8.684;2023-03-01T08:01:26;18.55;;;10.75;;
55224;SDS011;41091;49.400;8.684;2023-03-01T08:03:52;23.27;;;11.07;;
55224;SDS011;41091;49.400;8.684;2023-03-01T08:06:17;15.57;;;10.77;;
55224;SDS011;41091;49.400;8.684;2023-03-01T08:08:45;19.45;;;11.38;;
55224;SDS011;41091;49.400;8.684;2023-03-01T08:11:13;18.10;;;10.48;;
55224;SDS011;41091;49.400;8.684;2023-03-01T08:13:39;20.33;;;10.82;;
55224;SDS011;41091;49.400;8.684;2023-03-01T08:16:06;20.88;;;11.40;;
55224;SDS011;41091;49.400;8.684;2023-03-01T08:18:33;18.58;;;11.75;;
55224;SDS011;41091;49.400;8.684;2023-03-01T08:21:09;19.08;;;10.77;;
55224;SDS011;41091;49.400;8.684;2023-03-01T08:23:36;19.25;;;10.68;;
55224;SDS011;41091;49.400;8.684;2023-03-01T08:26:09;19.52;;;10.30;;
55224;SDS011;41091;49.400;8.684;2023-03-01T08:28:39;19.50;;;11.23;;
55224;SDS011;41091;49.400;8.684;2023-03-01T08:31:21;20.55;;;11.05;;
55224;SDS011;41091;49.400;8.684;2023-03-01T08:33:50;18.23;;;10.73;;
55224;SDS011;41091;49.400;8.684;2023-03-01T08:38:48;18.38;;;10.27;;
55224;SDS011;41091;49.400;8.684;2023-03-01T08:41:19;22.90;;;11.73;;
55224;SDS011;41091;49.400;8.684;2023-03-01T08:43:44;25.80;;;11.40;;
55224;SDS011;41091;49.400;8.684;2023-03-01T08:46:10;22.42;;;11.05;;
55224;SDS011;41091;49.400;8.684;2023-03-01T08:48:36;16.45;;;10.88;;
55224;SDS011;41091;49.400;8.684;2023-03-01T08:51:08;19.45;;;12.00;;
55224;SDS011;41091;49.400;8.684;2023-03-01T08:53:40;18.65;;;11.55;;
55224;SDS011;41091;49.400;8.684;2023-03-01T08:56:06;23.35;;;11.10;;
55224;SDS011;41091;49.400;8.684;2023-03-01T08:58:32;19.88;;;11.63;;
55224;SDS011;41091;49.400;8.684;2023-03-01T09:00:57;19.55;;;11.82;;
55224;SDS011;41091;49.400;8.684;2023-03-01T09:03:25;20.88;;;12.05;;
55224;SDS011;41091;49.400;8.684;2023-03-01T09:05:51;20.40;;;11.98;;
55224;SDS011;41091;49.400;8.684;2023-03-01T09:08:19;16.67;;;10.77;;
55224;SDS011;41091;49.400;8.684;2023-03-01T09:10:45;22.55;;;12.82;;
55224;SDS011;41091;49.400;8.684;2023-03-01T09:13:15;17.08;;;10.95;;
55224;SDS011;41091;49.400;8.684;2023-03-01T09:15:43;19.55;;;11.88;;
55224;SDS011;41091;49.400;8.684;2023-03-01T09:18:08;18.02;;;11.18;;
55224;SDS011;41091;49.400;8.684;2023-03-01T09:20:33;20.17;;;11.57;;
55224;SDS011;41091;49.400;8.684;2023-03-01T09:22:59;22.80;;;12.13;;
55224;SDS011;41091;49.400;8.684;2023-03-01T09:25:27;26.30;;;12.15;;
55224;SDS011;41091;49.400;8.684;2023-03-01T09:27:59;21.38;;;11.27;;
55224;SDS011;41091;49.400;8.684;2023-03-01T09:30:24;18.45;;;11.02;;
55224;SDS011;41091;49.400;8.684;2023-03-01T09:32:50;21.52;;;11.93;;
55224;SDS011;41091;49.400;8.684;2023-03-01T09:35:15;19.65;;;11.43;;
55224;SDS011;41091;49.400;8.684;2023-03-01T09:37:40;16.63;;;11.32;;
55224;SDS011;41091;49.400;8.684;2023-03-01T09:40:12;17.13;;;12.10;;
55224;SDS011;41091;49.400;8.684;2023-03-01T09:42:45;17.02;;;11.90;;
55224;SDS011;41091;49.400;8.684;2023-03-01T09:45:18;17.92;;;12.32;;
55224;SDS011;41091;49.400;8.684;2023-03-01T09:47:51;18.83;;;11.73;;
55224;SDS011;41091;49.400;8.684;2023-03-01T09:55:37;20.88;;;12.18;;
55224;SDS011;41091;49.400;8.684;2023-03-01T10:00:48;17.33;;;10.93;;
55224;SDS011;41091;49.400;8.684;2023-03-01T10:03:22;17.97;;;10.80;;
55224;SDS011;41091;49.400;8.684;2023-03-01T10:06:11;16.83;;;11.93;;
55224;SDS011;41091;49.400;8.684;2023-03-01T10:08:56;18.60;;;11.23;;
55224;SDS011;41091;49.400;8.684;2023-03-01T10:11:35;16.75;;;10.95;;
55224;SDS011;41091;49.400;8.684;2023-03-01T10:19:14;14.80;;;10.90;;
55224;SDS011;41091;49.400;8.684;2023-03-01T10:21:45;21.10;;;11.02;;
55224;SDS011;41091;49.400;8.684;2023-03-01T10:24:12;19.65;;;12.18;;
55224;SDS011;41091;49.400;8.684;2023-03-01T10:26:55;19.52;;;11.45;;
55224;SDS011;41091;49.400;8.684;2023-03-01T10:29:47;18.10;;;11.07;;
55224;SDS011;41091;49.400;8.684;2023-03-01T10:32:19;15.75;;;11.35;;
55224;SDS011;41091;49.400;8.684;2023-03-01T10:34:46;16.23;;;10.63;;
55224;SDS011;41091;49.400;8.684;2023-03-01T10:37:18;15.90;;;10.70;;
55224;SDS011;41091;49.400;8.684;2023-03-01T10:42:35;14.88;;;10.70;;
55224;SDS011;41091;49.400;8.684;2023-03-01T10:48:04;21.17;;;11.10;;
55224;SDS011;41091;49.400;8.684;2023-03-01T10:53:28;28.67;;;10.75;;
55224;SDS011;41091;49.400;8.684;2023-03-01T10:58:22;16.90;;;10.75;;
55224;SDS011;41091;49.400;8.684;2023-03-01T11:03:18;19.15;;;9.95;;
55224;SDS011;41091;49.400;8.684;2023-03-01T11:06:29;11.15;;;8.35;;
55224;SDS011;41091;49.400;8.684;2023-03-01T11:08:37;17.05;;;11.60;;
55224;SDS011;41091;49.400;8.684;2023-03-01T11:11:05;13.18;;;8.95;;
55224;SDS011;41091;49.400;8.684;2023-03-01T11:13:36;13.73;;;10.10;;
55224;SDS011;41091;49.400;8.684;2023-03-01T11:16:14;18.20;;;9.57;;
55224;SDS011;41091;49.400;8.684;2023-03-01T11:19:00;16.10;;;10.68;;
55224;SDS011;41091;49.400;8.684;2023-03-01T11:21:38;16.65;;;9.93;;
55224;SDS011;41091;49.400;8.684;2023-03-01T11:24:08;12.35;;;8.80;;
55224;SDS011;41091;49.400;8.684;2023-03-01T11:26:37;11.27;;;8.63;;
55224;SDS011;41091;49.400;8.684;2023-03-01T11:29:16;11.82;;;9.63;;
55224;SDS011;41091;49.400;8.684;2023-03-01T11:31:46;11.95;;;9.18;;
55224;SDS011;41091;49.400;8.684;2023-03-01T11:34:19;12.60;;;8.98;;
55224;SDS011;41091;49.400;8.684;2023-03-01T11:36:51;15.70;;;9.50;;
55224;SDS011;41091;49.400;8.684;2023-03-01T11:42:11;9.73;;;7.00;;
55224;SDS011;41091;49.400;8.684;2023-03-01T11:44:38;13.88;;;8.93;;
55224;SDS011;41091;49.400;8.684;2023-03-01T11:58:47;9.05;;;8.18;;
55224;SDS011;41091;49.400;8.684;2023-03-01T12:04:31;8.02;;;7.22;;
55224;SDS011;41091;49.400;8.684;2023-03-01T12:07:36;12.18;;;8.27;;
55224;SDS011;41091;49.400;8.684;2023-03-01T12:10:35;12.90;;;7.72;;
55224;SDS011;41091;49.400;8.684;2023-03-01T12:23:41;11.53;;;8.20;;
55224;SDS011;41091;49.400;8.684;2023-03-01T12:26:25;9.98;;;8.25;;
55224;SDS011;41091;49.400;8.684;2023-03-01T12:51:03;9.70;;;7.28;;
55224;SDS011;41091;49.400;8.684;2023-03-01T12:53:32;7.88;;;7.18;;
55224;SDS011;41091;49.400;8.684;2023-03-01T12:56:02;8.37;;;7.20;;
55224;SDS011;41091;49.400;8.684;2023-03-01T13:01:22;12.90;;;8.13;;
55224;SDS011;41091;49.400;8.684;2023-03-01T13:12:56;9.77;;;7.78;;
55224;SDS011;41091;49.400;8.684;2023-03-01T13:20:23;12.13;;;7.63;;
55224;SDS011;41091;49.400;8.684;2023-03-01T13:23:02;11.55;;;8.05;;
55224;SDS011;41091;49.400;8.684;2023-03-01T13:25:32;10.18;;;8.32;;
55224;SDS011;41091;49.400;8.684;2023-03-01T13:31:04;13.05;;;8.90;;
55224;SDS011;41091;49.400;8.684;2023-03-01T13:33:42;11.70;;;7.93;;
55224;SDS011;41091;49.400;8.684;2023-03-01T13:36:08;13.85;;;8.35;;
55224;SDS011;41091;49.400;8.684;2023-03-01T13:38:37;10.85;;;8.13;;
55224;SDS011;41091;49.400;8.684;2023-03-01T13:41:03;12.38;;;8.10;;
55224;SDS011;41091;49.400;8.684;2023-03-01T13:43:34;12.73;;;8.75;;
55224;SDS011;41091;49.400;8.684;2023-03-01T13:46:01;14.13;;;7.45;;
55224;SDS011;41091;49.400;8.684;2023-03-01T13:48:32;12.73;;;8.40;;
55224;SDS011;41091;49.400;8.684;2023-03-01T13:51:00;8.77;;;7.68;;
55224;SDS011;41091;49.400;8.684;2023-03-01T13:53:30;12.23;;;7.67;;
55224;SDS011;41091;49.400;8.684;2023-03-01T13:56:00;11.35;;;7.60;;
55224;SDS011;41091;49.400;8.684;2023-03-01T13:58:28;9.07;;;7.32;;
55224;SDS011;41091;49.400;8.684;2023-03-01T14:00:56;9.80;;;7.07;;
55224;SDS011;41091;49.400;8.684;2023-03-01T14:03:27;9.35;;;7.20;;
55224;SDS011;41091;49.400;8.684;2023-03-01T14:08:27;11.07;;;7.53;;
55224;SDS011;41091;49.400;8.684;2023-03-01T14:10:58;10.95;;;7.40;;
55224;SDS011;41091;49.400;8.684;2023-03-01T14:17:23;10.77;;;7.65;;
55224;SDS011;41091;49.400;8.684;2023-03-01T14:19:31;10.20;;;7.53;;
55224;SDS011;41091;49.400;8.684;2023-03-01T14:24:50;11.57;;;7.60;;
55224;SDS011;41091;49.400;8.684;2023-03-01T14:27:19;14.23;;;8.85;;
55224;SDS011;41091;49.400;8.684;2023-03-01T14:29:54;9.35;;;7.45;;
55224;SDS011;41091;49.400;8.684;2023-03-01T14:32:30;8.52;;;7.05;;
55224;SDS011;41091;49.400;8.684;2023-03-01T14:34:58;12.43;;;7.68;;
55224;SDS011;41091;49.400;8.684;2023-03-01T14:39:54;8.90;;;7.53;;
55224;SDS011;41091;49.400;8.684;2023-03-01T14:42:23;9.80;;;7.13;;
55224;SDS011;41091;49.400;8.684;2023-03-01T14:44:51;11.20;;;7.88;;
55224;SDS011;41091;49.400;8.684;2023-03-01T14:47:26;14.90;;;8.45;;
55224;SDS011;41091;49.400;8.684;2023-03-01T14:49:57;9.27;;;7.32;;
55224;SDS011;41091;49.400;8.684;2023-03-01T14:52:27;15.98;;;8.07;;
55224;SDS011;41091;49.400;8.684;2023-03-01T14:54:59;10.10;;;7.65;;
55224;SDS011;41091;49.400;8.684;2023-03-01T14:57:27;13.07;;;8.98;;
55224;SDS011;41091;49.400;8.684;2023-03-01T14:59:57;8.18;;;6.95;;
55224;SDS011;41091;49.400;8.684;2023-03-01T15:02:29;11.48;;;7.78;;
55224;SDS011;41091;49.400;8.684;2023-03-01T15:04:56;12.80;;;8.13;;
55224;SDS011;41091;49.400;8.684;2023-03-01T15:07:24;10.90;;;7.90;;
55224;SDS011;41091;49.400;8.684;2023-03-01T15:09:52;12.90;;;8.73;;
55224;SDS011;41091;49.400;8.684;2023-03-01T15:14:55;14.25;;;7.78;;
55224;SDS011;41091;49.400;8.684;2023-03-01T15:19:54;13.25;;;8.05;;
55224;SDS011;41091;49.400;8.684;2023-03-01T15:22:19;14.18;;;7.32;;
55224;SDS011;41091;49.400;8.684;2023-03-01T15:24:46;11.02;;;7.28;;
55224;SDS011;41091;49.400;8.684;2023-03-01T15:27:17;10.30;;;7.00;;
55224;SDS011;41091;49.400;8.684;2023-03-01T15:29:54;12.95;;;7.70;;
55224;SDS011;41091;49.400;8.684;2023-03-01T15:32:29;10.82;;;7.80;;
55224;SDS011;41091;49.400;8.684;2023-03-01T15:34:57;13.10;;;7.45;;
55224;SDS011;41091;49.400;8.684;2023-03-01T15:40:31;11.18;;;7.80;;
55224;SDS011;41091;49.400;8.684;2023-03-01T15:43:01;12.60;;;7.07;;
55224;SDS011;41091;49.400;8.684;2023-03-01T15:45:31;13.90;;;7.70;;
55224;SDS011;41091;49.400;8.684;2023-03-01T15:48:32;13.13;;;7.65;;
55224;SDS011;41091;49.400;8.684;2023-03-01T15:50:54;11.70;;;7.20;;
55224;SDS011;41091;49.400;8.684;2023-03-01T15:53:20;10.70;;;7.82;;
55224;SDS011;41091;49.400;8.684;2023-03-01T15:55:48;13.77;;;8.38;;
55224;SDS011;41091;49.400;8.684;2023-03-01T15:58:21;12.25;;;8.13;;
55224;SDS011;41091;49.400;8.684;2023-03-01T16:00:47;14.90;;;8.90;;
55224;SDS011;41091;49.400;8.684;2023-03-01T16:03:15;10.25;;;7.75;;
55224;SDS011;41091;49.400;8.684;2023-03-01T16:05:46;10.15;;;7.55;;
55224;SDS011;41091;49.400;8.684;2023-03-01T16:08:19;11.15;;;8.00;;
55224;SDS011;41091;49.400;8.684;2023-03-01T16:10:45;10.35;;;7.53;;
55224;SDS011;41091;49.400;8.684;2023-03-01T16:13:15;11.27;;;7.57;;
55224;SDS011;41091;49.400;8.684;2023-03-01T16:15:42;14.32;;;8.90;;
55224;SDS011;41091;49.400;8.684;2023-03-01T16:18:08;16.08;;;7.55;;
55224;SDS011;41091;49.400;8.684;2023-03-01T16:20:36;9.15;;;7.35;;
55224;SDS011;41091;49.400;8.684;2023-03-01T16:23:03;10.07;;;7.80;;
55224;SDS011;41091;49.400;8.684;2023-03-01T16:25:29;12.90;;;7.65;;
55224;SDS011;41091;49.400;8.684;2023-03-01T16:27:58;14.00;;;7.40;;
55224;SDS011;41091;49.400;8.684;2023-03-01T16:30:26;12.38;;;7.72;;
55224;SDS011;41091;49.400;8.684;2023-03-01T16:32:56;10.35;;;7.10;;
55224;SDS011;41091;49.400;8.684;2023-03-01T16:35:23;15.60;;;7.40;;
55224;SDS011;41091;49.400;8.684;2023-03-01T16:37:49;12.55;;;7.65;;
55224;SDS011;41091;49.400;8.684;2023-03-01T16:40:25;11.60;;;7.17;;
55224;SDS011;41091;49.400;8.684;2023-03-01T16:42:52;9.55;;;7.45;;
55224;SDS011;41091;49.400;8.684;2023-03-01T16:45:18;11.73;;;7.47;;
55224;SDS011;41091;49.400;8.684;2023-03-01T16:47:44;10.48;;;7.65;;
55224;SDS011;41091;49.400;8.684;2023-03-01T16:50:12;11.55;;;6.72;;
55224;SDS011;41091;49.400;8.684;2023-03-01T16:52:37;10.38;;;7.47;;
55224;SDS011;41091;49.400;8.684;2023-03-01T16:55:03;12.15;;;8.38;;